createdAt,value
2019-04-10T00:00:35.130Z,71.99
2019-04-10T00:03:04.126Z,73.23
2019-04-10T00:05:32.425Z,72.71
2019-04-10T00:08:01.810Z,73.12
2019-04-10T00:10:30.302Z,73.42
2019-04-10T00:12:58.617Z,73.16
2019-04-10T00:15:27.098Z,73.23
2019-04-10T00:17:55.689Z,73.60
2019-04-10T00:20:24.596Z,73.81
2019-04-10T00:22:53.302Z,74.79
2019-04-10T00:25:21.633Z,74.43
2019-04-10T00:27:50.736Z,74.84
2019-04-10T00:30:19.190Z,74.73
2019-04-10T00:32:48.103Z,74.76
2019-04-10T00:35:16.457Z,75.05
2019-04-10T00:37:44.989Z,75.69
2019-04-10T00:40:13.257Z,75.91
2019-04-10T00:42:41.898Z,75.79
2019-04-10T00:45:11.254Z,76.03
2019-04-10T00:47:39.616Z,76.30
2019-04-10T00:50:08.483Z,76.72
2019-04-10T00:52:37.076Z,77.53
2019-04-10T00:55:05.877Z,77.69
2019-04-10T00:57:34.526Z,77.75
2019-04-10T01:00:02.805Z,77.75
2019-04-10T01:02:32.202Z,77.69
2019-04-10T01:05:00.834Z,78.09
2019-04-10T01:07:36.581Z,78.14
2019-04-10T01:09:59.128Z,78.31
2019-04-10T01:12:28.169Z,78.42
2019-04-10T01:14:58.100Z,78.44
2019-04-10T01:17:26.688Z,78.62
2019-04-10T01:19:54.961Z,78.52
2019-04-10T01:22:24.069Z,78.59
2019-04-10T01:24:52.431Z,78.54
2019-04-10T01:27:21.017Z,79.03
2019-04-10T01:29:49.633Z,79.54
2019-04-10T01:32:18.014Z,79.76
2019-04-10T01:34:46.538Z,80.12
2019-04-10T01:37:14.804Z,80.93
2019-04-10T01:39:43.443Z,80.88
2019-04-10T01:42:12.467Z,81.28
2019-04-10T01:44:40.764Z,82.04
2019-04-10T01:47:09.074Z,82.50
2019-04-10T01:49:37.882Z,82.50
2019-04-10T01:52:06.933Z,82.64
2019-04-10T01:54:35.989Z,82.72
2019-04-10T01:57:04.299Z,83.01
2019-04-10T01:59:34.143Z,83.91
2019-04-10T02:02:05.161Z,83.89
2019-04-10T02:04:33.672Z,83.99
2019-04-10T02:07:02.208Z,84.13
2019-04-10T02:09:31.665Z,84.71
2019-04-10T02:12:00.276Z,84.58
2019-04-10T02:14:28.562Z,84.99
2019-04-10T02:16:57.091Z,85.16
2019-04-10T02:19:26.113Z,85.31
2019-04-10T02:21:54.472Z,85.37
2019-04-10T02:24:23.024Z,85.32
2019-04-10T02:26:51.963Z,85.61
2019-04-10T02:29:20.431Z,85.73
2019-04-10T02:31:50.550Z,85.53
2019-04-10T02:34:19.305Z,85.38
2019-04-10T02:36:50.668Z,85.02
2019-04-10T02:39:29.167Z,85.05
2019-04-10T02:41:49.980Z,85.04
2019-04-10T02:44:18.723Z,85.67
2019-04-10T02:46:47.448Z,85.61
2019-04-10T02:49:16.366Z,85.96
2019-04-10T02:51:45.452Z,86.18
2019-04-10T02:54:15.352Z,86.16
2019-04-10T02:56:45.577Z,86.04
2019-04-10T02:59:15.451Z,85.88
2019-04-10T03:01:44.150Z,86.04
2019-04-10T03:04:13.360Z,86.33
2019-04-10T03:06:42.818Z,86.63
2019-04-10T03:09:28.892Z,86.96
2019-04-10T03:11:41.978Z,87.87
2019-04-10T03:14:12.362Z,87.94
2019-04-10T03:16:41.758Z,88.34
2019-04-10T03:19:10.154Z,88.40
2019-04-10T03:21:39.473Z,88.83
2019-04-10T03:24:07.813Z,88.86
2019-04-10T03:26:36.092Z,88.62
2019-04-10T03:29:05.257Z,88.59
2019-04-10T03:31:34.438Z,88.45
2019-04-10T03:34:19.282Z,88.44
2019-04-10T03:36:47.511Z,88.39
2019-04-10T03:39:15.931Z,88.32
2019-04-10T03:41:44.372Z,88.19
2019-04-10T03:44:12.663Z,88.07
2019-04-10T03:46:41.083Z,88.01
2019-04-10T03:49:09.641Z,87.89
2019-04-10T03:51:38.777Z,87.81
2019-04-10T03:54:07.247Z,88.07
2019-04-10T03:56:36.167Z,88.18
2019-04-10T03:59:04.444Z,88.29
2019-04-10T04:01:33.382Z,88.02
2019-04-10T04:04:01.840Z,88.00
2019-04-10T04:06:30.121Z,88.77
2019-04-10T04:09:05.917Z,88.98
2019-04-10T04:11:29.357Z,89.13
2019-04-10T04:13:57.751Z,89.19
2019-04-10T04:16:29.183Z,89.23
2019-04-10T04:18:57.677Z,89.59
2019-04-10T04:21:25.976Z,89.40
2019-04-10T04:23:55.228Z,89.49
2019-04-10T04:26:23.622Z,89.44
2019-04-10T04:28:52.072Z,89.58
2019-04-10T04:31:20.354Z,89.79
2019-04-10T04:33:49.000Z,89.98
2019-04-10T04:36:18.267Z,89.94
2019-04-10T04:38:46.761Z,89.73
2019-04-10T04:41:15.432Z,89.86
2019-04-10T04:43:45.970Z,90.18
2019-04-10T04:46:14.136Z,90.00
2019-04-10T04:48:43.342Z,90.03
2019-04-10T04:51:11.755Z,89.78
2019-04-10T04:53:40.033Z,89.99
2019-04-10T04:56:09.406Z,89.93
2019-04-10T04:58:38.210Z,90.06
2019-04-10T05:01:06.560Z,90.07
2019-04-10T05:03:35.427Z,89.79
2019-04-10T05:06:03.859Z,90.47
2019-04-10T05:08:32.416Z,90.38
2019-04-10T05:11:00.800Z,90.45
2019-04-10T05:13:29.232Z,90.41
2019-04-10T05:15:57.618Z,90.59
2019-04-10T05:18:25.892Z,90.67
2019-04-10T05:20:54.694Z,91.13
2019-04-10T05:23:23.147Z,91.64
2019-04-10T05:25:51.935Z,92.04
2019-04-10T05:28:20.517Z,91.99
2019-04-10T05:30:48.828Z,92.19
2019-04-10T05:33:17.440Z,92.33
2019-04-10T05:35:45.855Z,92.25
2019-04-10T05:38:14.126Z,92.21
2019-04-10T05:40:44.184Z,92.46
2019-04-10T05:43:13.451Z,92.74
2019-04-10T05:45:42.818Z,92.42
2019-04-10T05:48:11.136Z,91.83
2019-04-10T05:50:39.857Z,91.74
2019-04-10T05:53:08.356Z,91.52
2019-04-10T05:55:38.547Z,91.46
2019-04-10T05:58:07.193Z,91.29
2019-04-10T06:00:36.631Z,91.00
2019-04-10T06:03:06.204Z,90.82
2019-04-10T06:05:34.547Z,90.33
2019-04-10T06:08:02.878Z,90.30
2019-04-10T06:10:32.209Z,88.66
2019-04-10T06:13:00.709Z,88.76
2019-04-10T06:15:29.007Z,89.05
2019-04-10T06:17:58.607Z,87.86
2019-04-10T06:20:27.192Z,87.10
2019-04-10T06:22:55.476Z,87.08
2019-04-10T06:25:24.886Z,86.47
2019-04-10T06:27:53.609Z,86.60
2019-04-10T06:30:21.853Z,85.41
2019-04-10T06:32:50.193Z,85.58
2019-04-10T06:35:18.698Z,84.27
2019-04-10T06:37:48.404Z,83.80
2019-04-10T06:40:21.244Z,83.13
2019-04-10T06:42:52.299Z,82.96
2019-04-10T06:45:19.853Z,82.33
2019-04-10T06:47:48.684Z,81.20
2019-04-10T06:50:17.022Z,81.26
2019-04-10T06:52:45.314Z,80.24
2019-04-10T06:55:15.371Z,78.87
2019-04-10T06:57:51.220Z,79.22
2019-04-10T07:00:16.992Z,78.63
2019-04-10T07:02:46.284Z,78.43
2019-04-10T07:05:15.101Z,77.38
2019-04-10T07:07:51.370Z,77.37
2019-04-10T07:10:22.748Z,76.03
2019-04-10T07:12:43.908Z,73.20
2019-04-10T07:15:12.933Z,74.53
2019-04-10T07:17:41.985Z,73.74
2019-04-10T07:20:11.531Z,73.95
2019-04-10T07:22:46.669Z,74.68
2019-04-10T07:25:12.457Z,71.33
2019-04-10T07:27:41.643Z,71.33
2019-04-10T07:30:10.179Z,70.77
2019-04-10T07:32:41.207Z,70.07
2019-04-10T07:35:08.996Z,70.70
2019-04-10T07:37:37.470Z,70.41
2019-04-10T07:40:07.978Z,69.00
2019-04-10T07:42:39.777Z,68.96
2019-04-10T07:45:07.862Z,69.49
2019-04-10T07:47:36.391Z,69.84
2019-04-10T07:50:10.303Z,67.69
2019-04-10T07:52:38.697Z,67.47
2019-04-10T07:55:07.078Z,67.47
2019-04-10T07:57:36.378Z,67.50
2019-04-10T08:00:06.718Z,67.50
2019-04-10T08:02:35.583Z,66.88
2019-04-10T08:05:05.139Z,66.88
2019-04-10T08:07:36.306Z,67.54
2019-04-10T08:10:05.649Z,66.51
2019-04-10T08:12:42.452Z,65.00
2019-04-10T08:15:05.578Z,65.81
2019-04-10T08:17:34.564Z,65.81
2019-04-10T08:20:03.783Z,64.58
2019-04-10T08:22:32.839Z,63.75
2019-04-10T08:25:02.276Z,64.48
2019-04-10T08:27:32.001Z,62.92
2019-04-10T08:30:01.168Z,61.83
2019-04-10T08:32:30.160Z,62.15
2019-04-10T08:34:58.458Z,62.67
2019-04-10T08:37:26.898Z,60.66
2019-04-10T08:39:55.355Z,60.67
2019-04-10T08:42:24.465Z,60.26
2019-04-10T08:44:52.892Z,61.24
2019-04-10T08:47:22.567Z,59.96
2019-04-10T08:49:50.990Z,59.85
2019-04-10T08:52:19.957Z,57.05
2019-04-10T08:54:49.066Z,57.65
2019-04-10T08:57:17.693Z,58.79
2019-04-10T08:59:47.197Z,57.58
2019-04-10T09:02:16.088Z,57.69
2019-04-10T09:04:44.696Z,55.07
2019-04-10T09:07:13.760Z,55.19
2019-04-10T09:09:42.083Z,56.53
2019-04-10T09:12:10.501Z,55.60
2019-04-10T09:14:38.798Z,54.60
2019-04-10T09:17:11.202Z,53.27
2019-04-10T09:19:40.265Z,54.83
2019-04-10T09:22:10.040Z,55.36
2019-04-10T09:24:38.467Z,52.84
2019-04-10T09:27:06.755Z,52.91
2019-04-10T09:29:36.262Z,53.32
2019-04-10T09:32:04.748Z,52.25
2019-04-10T09:34:34.030Z,52.67
2019-04-10T09:37:02.600Z,51.45
2019-04-10T09:39:31.775Z,50.96
2019-04-10T09:42:01.118Z,50.52
2019-04-10T09:44:29.893Z,50.61
2019-04-10T09:46:58.240Z,49.22
2019-04-10T09:49:37.662Z,48.50
2019-04-10T09:51:58.618Z,51.26
2019-04-10T09:54:28.028Z,50.25
2019-04-10T09:56:57.188Z,50.60
2019-04-10T09:59:33.972Z,49.32
2019-04-10T10:01:56.355Z,48.79
2019-04-10T10:04:25.717Z,48.70
2019-04-10T10:06:54.178Z,48.34
2019-04-10T10:09:23.860Z,47.36
2019-04-10T10:11:53.365Z,46.72
2019-04-10T10:14:23.000Z,46.40
2019-04-10T10:16:52.511Z,46.12
2019-04-10T10:19:21.827Z,45.44
2019-04-10T10:21:50.546Z,44.50
2019-04-10T10:24:19.797Z,45.23
2019-04-10T10:26:49.309Z,44.06
2019-04-10T10:29:18.418Z,46.72
2019-04-10T10:31:49.334Z,43.75
2019-04-10T10:34:18.462Z,44.48
2019-04-10T10:36:50.659Z,44.11
2019-04-10T10:39:19.060Z,42.17
2019-04-10T10:41:48.869Z,43.03
2019-04-10T10:44:17.438Z,42.20
2019-04-10T10:46:45.876Z,41.42
2019-04-10T10:49:14.165Z,40.66
2019-04-10T10:51:42.662Z,39.70
2019-04-10T10:54:10.943Z,40.72
2019-04-10T10:56:40.396Z,40.57
2019-04-10T10:59:09.249Z,39.86
2019-04-10T11:01:38.040Z,41.31
2019-04-10T11:04:06.834Z,41.20
2019-04-10T11:06:48.922Z,40.09
2019-04-10T11:09:08.333Z,38.94
2019-04-10T11:11:37.063Z,39.52
2019-04-10T11:14:05.929Z,40.33
2019-04-10T11:16:34.507Z,40.05
2019-04-10T11:19:02.890Z,39.95
2019-04-10T11:21:32.395Z,39.03
2019-04-10T11:24:01.048Z,39.93
2019-04-10T11:26:30.233Z,39.04
2019-04-10T11:28:59.157Z,39.98
2019-04-10T11:31:29.106Z,39.90
2019-04-10T11:33:58.225Z,37.47
2019-04-10T11:36:28.083Z,37.65
2019-04-10T11:39:09.095Z,37.87
2019-04-10T11:41:26.605Z,39.77
2019-04-10T11:43:56.042Z,38.37
2019-04-10T11:46:28.223Z,38.40
2019-04-10T11:48:55.546Z,37.91
2019-04-10T11:51:29.798Z,38.33
2019-04-10T11:53:56.460Z,36.11
2019-04-10T11:56:26.831Z,37.46
2019-04-10T11:58:56.875Z,37.02
2019-04-10T12:01:25.673Z,39.12
2019-04-10T12:03:56.591Z,38.60
2019-04-10T12:06:25.324Z,39.94
2019-04-10T12:09:13.735Z,36.60
2019-04-10T12:11:24.724Z,37.83
2019-04-10T12:13:53.156Z,36.23
2019-04-10T12:16:21.524Z,36.38
2019-04-10T12:18:50.870Z,36.46
2019-04-10T12:21:19.875Z,35.83
2019-04-10T12:23:50.050Z,33.70
2019-04-10T12:26:18.219Z,33.56
2019-04-10T12:28:46.647Z,35.16
2019-04-10T12:31:15.606Z,35.99
2019-04-10T12:33:44.408Z,33.56
2019-04-10T12:36:14.126Z,34.80
2019-04-10T12:38:43.639Z,33.61
2019-04-10T12:41:12.079Z,31.98
2019-04-10T12:43:41.111Z,33.69
2019-04-10T12:46:10.679Z,32.46
2019-04-10T12:48:41.055Z,32.36
2019-04-10T12:51:10.001Z,33.12
2019-04-10T12:53:38.332Z,32.14
2019-04-10T12:56:06.659Z,33.04
2019-04-10T12:58:35.080Z,31.85
2019-04-10T13:01:04.533Z,31.32
2019-04-10T13:03:33.373Z,31.41
2019-04-10T13:06:01.956Z,31.25
2019-04-10T13:08:49.953Z,30.56
2019-04-10T13:11:02.559Z,30.93
2019-04-10T13:13:31.365Z,32.12
2019-04-10T13:15:59.630Z,32.16
2019-04-10T13:18:28.150Z,30.92
2019-04-10T13:20:57.935Z,32.10
2019-04-10T13:23:26.687Z,31.73
2019-04-10T13:25:58.093Z,31.19
2019-04-10T13:28:25.543Z,30.95
2019-04-10T13:30:55.534Z,31.63
2019-04-10T13:33:24.617Z,30.95
2019-04-10T13:35:53.379Z,31.80
2019-04-10T13:38:26.624Z,32.56
2019-04-10T13:40:52.196Z,32.14
2019-04-10T13:43:20.495Z,32.48
2019-04-10T13:45:48.810Z,32.07
2019-04-10T13:48:17.090Z,33.86
2019-04-10T13:50:46.554Z,34.31
2019-04-10T13:53:15.503Z,33.34
2019-04-10T13:55:44.556Z,33.53
2019-04-10T13:58:13.027Z,33.93
2019-04-10T14:00:42.973Z,34.43
2019-04-10T14:03:12.331Z,33.31
2019-04-10T14:05:41.210Z,33.51
2019-04-10T14:08:10.433Z,34.28
2019-04-10T14:10:41.217Z,34.38
2019-04-10T14:13:08.964Z,34.37
2019-04-10T14:15:37.360Z,34.74
2019-04-10T14:18:06.256Z,33.67
2019-04-10T14:20:35.433Z,33.68
2019-04-10T14:23:12.570Z,34.17
2019-04-10T14:25:45.000Z,33.66
2019-04-10T14:28:13.276Z,34.29
2019-04-10T14:30:43.308Z,34.02
2019-04-10T14:33:12.879Z,33.77
2019-04-10T14:35:41.397Z,34.47
2019-04-10T14:38:11.273Z,33.10
2019-04-10T14:40:40.113Z,33.70
2019-04-10T14:43:08.570Z,32.75
2019-04-10T14:45:38.089Z,33.83
2019-04-10T14:48:07.878Z,32.44
2019-04-10T14:50:36.467Z,33.85
2019-04-10T14:53:05.629Z,32.72
2019-04-10T14:55:33.944Z,32.26
2019-04-10T14:58:03.445Z,32.37
2019-04-10T15:00:46.622Z,32.21
2019-04-10T15:03:16.116Z,32.89
2019-04-10T15:05:50.223Z,31.47
2019-04-10T15:08:15.495Z,32.32
2019-04-10T15:10:44.164Z,32.18
2019-04-10T15:13:17.486Z,31.88
2019-04-10T15:15:42.837Z,32.25
2019-04-10T15:18:11.250Z,31.46
2019-04-10T15:20:39.829Z,31.80
2019-04-10T15:23:08.245Z,31.42
2019-04-10T15:25:39.549Z,31.94
2019-04-10T15:28:08.488Z,33.30
2019-04-10T15:30:36.962Z,34.14
2019-04-10T15:33:06.591Z,34.14
2019-04-10T15:35:35.121Z,34.68
2019-04-10T15:38:04.050Z,34.12
2019-04-10T15:40:32.465Z,34.32
2019-04-10T15:43:00.843Z,33.98
2019-04-10T15:45:30.231Z,34.16
2019-04-10T15:48:00.173Z,33.55
2019-04-10T15:50:28.837Z,34.15
2019-04-10T15:52:57.971Z,34.32
2019-04-10T15:55:26.318Z,34.64
2019-04-10T15:57:57.815Z,34.59
2019-04-10T16:00:25.384Z,35.32
2019-04-10T16:02:55.349Z,35.49
2019-04-10T16:05:23.887Z,36.50
2019-04-10T16:07:53.135Z,36.25
2019-04-10T16:10:33.328Z,36.27
2019-04-10T16:13:19.875Z,36.03
2019-04-10T16:15:48.405Z,37.16
2019-04-10T16:18:21.170Z,38.03
2019-04-10T16:20:51.217Z,37.07
2019-04-10T16:23:34.109Z,37.71
2019-04-10T16:26:02.969Z,38.94
2019-04-10T16:28:31.521Z,39.31
2019-04-10T16:31:00.023Z,39.54
2019-04-10T16:33:29.440Z,39.13
2019-04-10T16:35:58.926Z,39.87
2019-04-10T16:38:28.634Z,40.01
2019-04-10T16:40:58.176Z,41.05
2019-04-10T16:43:28.511Z,41.42
2019-04-10T16:45:57.302Z,41.78
2019-04-10T16:48:26.446Z,42.05
2019-04-10T16:50:56.082Z,42.11
2019-04-10T16:53:25.641Z,41.91
2019-04-10T16:55:54.052Z,42.03
2019-04-10T16:58:23.457Z,42.94
2019-04-10T17:00:51.787Z,42.89
2019-04-10T17:03:20.084Z,43.11
2019-04-10T17:05:48.421Z,43.67
2019-04-10T17:08:16.698Z,43.02
2019-04-10T17:10:45.741Z,43.40
2019-04-10T17:13:14.174Z,43.43
2019-04-10T17:15:42.467Z,43.69
2019-04-10T17:18:10.896Z,44.72
2019-04-10T17:20:40.377Z,45.49
2019-04-10T17:23:09.805Z,45.62
2019-04-10T17:25:38.404Z,45.58
2019-04-10T17:28:08.041Z,45.67
2019-04-10T17:30:38.023Z,45.97
2019-04-10T17:33:06.953Z,46.29
2019-04-10T17:35:35.924Z,46.55
2019-04-10T17:38:04.679Z,45.83
2019-04-10T17:40:41.813Z,45.76
2019-04-10T17:43:03.279Z,46.17
2019-04-10T17:45:32.051Z,46.61
2019-04-10T17:48:01.071Z,46.13
2019-04-10T17:50:30.076Z,46.95
2019-04-10T17:52:58.868Z,47.15
2019-04-10T17:55:27.482Z,47.35
2019-04-10T17:57:57.767Z,47.87
2019-04-10T18:00:31.578Z,48.60
2019-04-10T18:03:01.121Z,49.29
2019-04-10T18:05:30.865Z,49.68
2019-04-10T18:08:00.705Z,49.57
2019-04-10T18:10:43.927Z,49.70
2019-04-10T18:13:01.041Z,50.09
2019-04-10T18:15:30.251Z,50.67
2019-04-10T18:17:59.864Z,51.29
2019-04-10T18:20:28.450Z,52.24
2019-04-10T18:22:57.300Z,52.22
2019-04-10T18:25:25.728Z,52.94
2019-04-10T18:27:54.612Z,53.22
2019-04-10T18:30:23.824Z,54.05
2019-04-10T18:32:52.254Z,54.60
2019-04-10T18:35:20.659Z,56.10
2019-04-10T18:37:49.119Z,56.75
2019-04-10T18:40:17.391Z,56.98
2019-04-10T18:42:45.690Z,56.86
2019-04-10T18:45:13.973Z,57.79
2019-04-10T18:47:42.280Z,58.15
2019-04-10T18:50:11.993Z,58.50
2019-04-10T18:52:40.386Z,58.70
2019-04-10T18:55:09.016Z,59.09
2019-04-10T18:57:37.373Z,59.51
2019-04-10T19:00:12.311Z,60.03
2019-04-10T19:02:43.971Z,60.71
2019-04-10T19:05:23.508Z,60.84
2019-04-10T19:07:52.156Z,61.34
2019-04-10T19:10:20.713Z,61.38
2019-04-10T19:12:49.048Z,61.21
2019-04-10T19:15:17.401Z,62.05
2019-04-10T19:17:46.753Z,61.90
2019-04-10T19:20:18.390Z,62.48
2019-04-10T19:22:46.801Z,63.06
2019-04-10T19:25:15.154Z,64.04
2019-04-10T19:27:44.470Z,64.30
2019-04-10T19:30:27.307Z,64.76
2019-04-10T19:32:55.746Z,64.76
2019-04-10T19:35:24.432Z,64.86
2019-04-10T19:37:52.971Z,64.82
2019-04-10T19:40:21.464Z,65.67
2019-04-10T19:42:51.454Z,65.67
2019-04-10T19:45:19.908Z,65.73
2019-04-10T19:47:48.495Z,65.41
2019-04-10T19:50:17.312Z,65.65
2019-04-10T19:52:46.770Z,66.21
2019-04-10T19:55:15.607Z,66.04
2019-04-10T19:57:43.951Z,66.46
2019-04-10T20:00:12.652Z,67.42
2019-04-10T20:02:41.730Z,67.42
2019-04-10T20:05:10.340Z,66.66
2019-04-10T20:07:39.190Z,67.41
2019-04-10T20:10:08.797Z,67.21
2019-04-10T20:12:37.329Z,67.21
2019-04-10T20:15:07.316Z,67.89
2019-04-10T20:17:35.985Z,67.89
2019-04-10T20:20:06.858Z,67.76
2019-04-10T20:22:35.557Z,67.81
2019-04-10T20:25:03.944Z,68.27
2019-04-10T20:27:32.353Z,67.87
2019-04-10T20:30:01.606Z,68.62
2019-04-10T20:32:30.784Z,68.62
2019-04-10T20:35:00.061Z,68.44
2019-04-10T20:37:29.031Z,68.72
2019-04-10T20:39:57.930Z,68.72
2019-04-10T20:42:26.697Z,69.03
2019-04-10T20:44:55.028Z,69.57
2019-04-10T20:47:24.599Z,69.56
2019-04-10T20:49:53.347Z,69.51
2019-04-10T20:52:22.104Z,69.51
2019-04-10T20:54:51.339Z,69.74
2019-04-10T20:57:19.619Z,69.86
2019-04-10T20:59:48.885Z,69.86
2019-04-10T21:02:18.061Z,70.19
2019-04-10T21:04:54.508Z,70.36
2019-04-10T21:07:16.468Z,70.48
2019-04-10T21:09:44.960Z,70.57
2019-04-10T21:12:17.459Z,70.53
2019-04-10T21:14:43.956Z,70.42
2019-04-10T21:17:12.562Z,70.84
2019-04-10T21:19:40.997Z,70.71
2019-04-10T21:22:09.628Z,70.66
2019-04-10T21:24:37.995Z,70.60
2019-04-10T21:27:07.165Z,70.91
2019-04-10T21:29:53.249Z,70.88
2019-04-10T21:32:32.384Z,70.88
2019-04-10T21:35:02.443Z,70.99
2019-04-10T21:37:30.831Z,71.32
2019-04-10T21:40:00.497Z,71.29
2019-04-10T21:42:29.782Z,71.29
2019-04-10T21:44:58.260Z,71.80
2019-04-10T21:47:27.659Z,71.66
2019-04-10T21:49:56.899Z,71.93
2019-04-10T21:52:25.542Z,71.99
2019-04-10T21:54:57.086Z,71.99
2019-04-10T21:57:24.349Z,72.38
2019-04-10T21:59:56.040Z,72.47
2019-04-10T22:02:24.340Z,72.77
2019-04-10T22:04:52.697Z,72.84
2019-04-10T22:07:38.725Z,72.42
2019-04-10T22:10:09.982Z,72.67
2019-04-10T22:12:43.916Z,72.67
2019-04-10T22:15:10.720Z,72.99
2019-04-10T22:17:39.099Z,73.00
2019-04-10T22:20:07.602Z,73.42
2019-04-10T22:22:35.833Z,73.45
2019-04-10T22:25:07.406Z,73.72
2019-04-10T22:27:35.974Z,74.10
2019-04-10T22:30:06.486Z,74.20
2019-04-10T22:32:35.313Z,74.45
2019-04-10T22:35:05.135Z,74.55
2019-04-10T22:37:33.502Z,74.36
2019-04-10T22:40:01.823Z,74.60
2019-04-10T22:42:41.105Z,74.83
2019-04-10T22:45:00.866Z,74.74
2019-04-10T22:47:29.614Z,74.58
2019-04-10T22:49:58.051Z,75.35
2019-04-10T22:52:26.771Z,75.39
2019-04-10T22:54:55.320Z,75.65
2019-04-10T22:57:23.611Z,75.85
2019-04-10T22:59:51.934Z,75.57
2019-04-10T23:02:21.410Z,75.18
2019-04-10T23:04:49.824Z,75.52
2019-04-10T23:07:18.171Z,75.23
2019-04-10T23:09:46.630Z,75.26
2019-04-10T23:12:16.127Z,75.65
2019-04-10T23:14:45.352Z,75.83
2019-04-10T23:17:14.683Z,76.25
2019-04-10T23:19:43.253Z,77.04
2019-04-10T23:22:11.844Z,76.78
2019-04-10T23:24:40.183Z,77.54
2019-04-10T23:27:09.343Z,77.33
2019-04-10T23:29:38.200Z,77.59
2019-04-10T23:32:06.632Z,77.67
2019-04-10T23:34:34.931Z,78.17
2019-04-10T23:37:03.257Z,78.28
2019-04-10T23:39:32.356Z,78.06
2019-04-10T23:42:01.598Z,78.11
2019-04-10T23:44:31.116Z,78.12
2019-04-10T23:46:59.944Z,78.57
2019-04-10T23:49:28.315Z,78.55
2019-04-10T23:51:56.658Z,78.62
2019-04-10T23:54:25.046Z,79.15
2019-04-10T23:56:54.684Z,79.74
2019-04-10T23:59:23.078Z,80.38
